createdAt,value
2022-10-15T00:00:50.187Z,14.12
2022-10-15T00:01:50.216Z,14.12
2022-10-15T00:02:50.153Z,14.10
2022-10-15T00:03:50.286Z,14.02
2022-10-15T00:04:50.141Z,14.04
2022-10-15T00:05:50.127Z,14.06
2022-10-15T00:06:50.110Z,14.04
2022-10-15T00:07:50.095Z,14.06
2022-10-15T00:08:50.121Z,14.07
2022-10-15T00:09:50.081Z,13.95
2022-10-15T00:10:50.076Z,13.98
2022-10-15T00:11:50.054Z,13.91
2022-10-15T00:12:50.100Z,13.99
2022-10-15T00:13:50.046Z,14.02
2022-10-15T00:14:50.064Z,14.06
2022-10-15T00:15:50.015Z,13.99
2022-10-15T00:16:50.015Z,13.95
2022-10-15T00:17:49.987Z,13.87
2022-10-15T00:18:49.997Z,13.84
2022-10-15T00:19:49.978Z,13.92
2022-10-15T00:20:49.958Z,13.96
2022-10-15T00:21:50.023Z,13.92
2022-10-15T00:22:49.939Z,13.89
2022-10-15T00:23:49.944Z,13.95
2022-10-15T00:24:49.925Z,14.04
2022-10-15T00:25:49.907Z,13.95
2022-10-15T00:26:49.895Z,13.92
2022-10-15T00:27:49.886Z,13.92
2022-10-15T00:28:49.955Z,13.89
2022-10-15T00:29:49.857Z,13.88
2022-10-15T00:30:49.863Z,13.88
2022-10-15T00:31:49.843Z,13.94
2022-10-15T00:32:49.840Z,13.94
2022-10-15T00:33:49.841Z,13.91
2022-10-15T00:34:49.816Z,13.94
2022-10-15T00:35:49.805Z,13.83
2022-10-15T00:36:49.796Z,13.89
2022-10-15T00:37:49.771Z,13.95
2022-10-15T00:38:49.782Z,13.92
2022-10-15T00:39:49.778Z,13.98
2022-10-15T00:40:49.741Z,13.95
2022-10-15T00:41:49.763Z,14.06
2022-10-15T00:42:49.739Z,14.07
2022-10-15T00:43:49.704Z,14.12
2022-10-15T00:44:49.695Z,13.98
2022-10-15T00:45:49.686Z,14.10
2022-10-15T00:46:49.692Z,14.07
2022-10-15T00:47:49.680Z,14.13
2022-10-15T00:48:49.652Z,14.13
2022-10-15T00:49:49.637Z,14.14
2022-10-15T00:50:49.631Z,14.02
2022-10-15T00:51:49.642Z,13.96
2022-10-15T00:52:49.621Z,14.01
2022-10-15T00:53:49.608Z,13.98
2022-10-15T00:54:49.590Z,14.06
2022-10-15T00:55:49.583Z,13.94
2022-10-15T00:56:49.566Z,14.06
2022-10-15T00:57:49.579Z,14.06
2022-10-15T00:58:49.545Z,14.01
2022-10-15T00:59:49.536Z,14.13
2022-10-15T01:00:49.552Z,14.12
2022-10-15T01:01:49.517Z,14.12
2022-10-15T01:02:49.592Z,14.19
2022-10-15T01:03:49.493Z,14.13
2022-10-15T01:04:49.483Z,14.12
2022-10-15T01:05:49.499Z,14.16
2022-10-15T01:06:49.459Z,14.12
2022-10-15T01:07:49.443Z,14.04
2022-10-15T01:08:49.452Z,14.12
2022-10-15T01:09:49.432Z,14.01
2022-10-15T01:10:49.439Z,13.95
2022-10-15T01:11:49.405Z,13.92
2022-10-15T01:12:49.398Z,13.95
2022-10-15T01:13:49.396Z,13.91
2022-10-15T01:14:49.385Z,13.89
2022-10-15T01:15:49.357Z,13.83
2022-10-15T01:16:49.354Z,13.91
2022-10-15T01:17:49.347Z,13.87
2022-10-15T01:18:49.375Z,13.87
2022-10-15T01:19:49.318Z,13.94
2022-10-15T01:20:49.303Z,13.88
2022-10-15T01:21:49.296Z,13.92
2022-10-15T01:22:49.284Z,13.98
2022-10-15T01:23:49.297Z,13.96
2022-10-15T01:24:49.271Z,13.91
2022-10-15T01:25:49.253Z,13.92
2022-10-15T01:26:49.244Z,13.88
2022-10-15T01:27:49.235Z,13.89
2022-10-15T01:28:49.296Z,13.91
2022-10-15T01:29:49.219Z,13.91
2022-10-15T01:30:49.192Z,13.80
2022-10-15T01:31:49.200Z,13.74
2022-10-15T01:32:49.200Z,13.79
2022-10-15T01:33:49.179Z,13.65
2022-10-15T01:34:49.180Z,13.80
2022-10-15T01:35:49.142Z,13.80
2022-10-15T01:36:49.138Z,13.70
2022-10-15T01:37:49.142Z,13.80
2022-10-15T01:38:49.111Z,13.81
2022-10-15T01:39:49.107Z,13.74
2022-10-15T01:40:49.087Z,13.70
2022-10-15T01:41:49.074Z,13.67
2022-10-15T01:42:49.091Z,13.76
2022-10-15T01:43:49.057Z,13.70
2022-10-15T01:44:49.048Z,13.76
2022-10-15T01:45:49.033Z,13.77
2022-10-15T01:46:49.024Z,13.65
2022-10-15T01:47:49.040Z,13.77
2022-10-15T01:48:48.995Z,13.74
2022-10-15T01:49:48.996Z,13.74
2022-10-15T01:50:48.994Z,13.73
2022-10-15T01:51:48.971Z,13.77
2022-10-15T01:52:48.971Z,13.67
2022-10-15T01:53:48.945Z,13.74
2022-10-15T01:54:48.935Z,13.84
2022-10-15T01:55:48.936Z,13.80
2022-10-15T01:56:48.912Z,13.76
2022-10-15T01:57:48.921Z,13.81
2022-10-15T01:58:48.895Z,13.88
2022-10-15T01:59:48.893Z,13.92
2022-10-15T02:00:48.901Z,13.80
2022-10-15T02:01:48.872Z,13.91
2022-10-15T02:02:48.873Z,13.81
2022-10-15T02:03:48.839Z,13.77
2022-10-15T02:04:48.828Z,13.80
2022-10-15T02:05:48.831Z,13.81
2022-10-15T02:06:48.823Z,13.77
2022-10-15T02:07:55.840Z,13.83
2022-10-15T02:08:48.775Z,13.89
2022-10-15T02:09:48.766Z,13.89
2022-10-15T02:10:48.759Z,13.92
2022-10-15T02:11:48.741Z,13.89
2022-10-15T02:12:48.739Z,14.01
2022-10-15T02:13:48.719Z,14.04
2022-10-15T02:14:48.707Z,13.99
2022-10-15T02:15:48.698Z,13.99
2022-10-15T02:16:48.686Z,13.94
2022-10-15T02:17:48.686Z,13.98
2022-10-15T02:18:48.668Z,14.01
2022-10-15T02:19:48.691Z,14.02
2022-10-15T02:20:48.643Z,13.98
2022-10-15T02:21:48.632Z,13.98
2022-10-15T02:22:48.649Z,13.95
2022-10-15T02:23:48.611Z,14.04
2022-10-15T02:24:51.721Z,14.17
2022-10-15T02:25:49.588Z,14.12
2022-10-15T02:26:48.576Z,14.09
2022-10-15T02:27:48.579Z,14.09
2022-10-15T02:28:48.630Z,14.10
2022-10-15T02:29:48.548Z,14.19
2022-10-15T02:30:48.533Z,14.20
2022-10-15T02:31:48.524Z,14.19
2022-10-15T02:32:48.523Z,14.27
2022-10-15T02:33:48.514Z,14.32
2022-10-15T02:34:48.490Z,14.20
2022-10-15T02:35:48.480Z,14.27
2022-10-15T02:36:48.467Z,14.37
2022-10-15T02:37:48.472Z,14.35
2022-10-15T02:38:48.464Z,14.34
2022-10-15T02:39:48.437Z,14.42
2022-10-15T02:40:48.423Z,14.42
2022-10-15T02:41:48.416Z,14.52
2022-10-15T02:42:48.426Z,14.49
2022-10-15T02:43:48.393Z,14.43
2022-10-15T02:44:48.384Z,14.53
2022-10-15T02:45:48.371Z,14.53
2022-10-15T02:46:48.364Z,14.54
2022-10-15T02:47:48.359Z,14.50
2022-10-15T02:48:48.337Z,14.50
2022-10-15T02:49:48.330Z,14.50
2022-10-15T02:50:48.316Z,14.57
2022-10-15T02:51:48.307Z,14.52
2022-10-15T02:52:48.307Z,14.53
2022-10-15T02:53:48.330Z,14.49
2022-10-15T02:54:48.287Z,14.49
2022-10-15T02:55:48.265Z,14.49
2022-10-15T02:56:48.251Z,14.47
2022-10-15T02:57:48.250Z,14.50
2022-10-15T02:58:48.229Z,14.53
2022-10-15T02:59:48.221Z,14.54
2022-10-15T03:00:48.267Z,14.53
2022-10-15T03:01:48.198Z,14.52
2022-10-15T03:02:48.203Z,14.54
2022-10-15T03:03:48.216Z,14.52
2022-10-15T03:04:48.168Z,14.57
2022-10-15T03:05:48.157Z,14.64
2022-10-15T03:06:48.141Z,14.64
2022-10-15T03:07:48.146Z,14.64
2022-10-15T03:08:48.119Z,14.65
2022-10-15T03:09:48.112Z,14.61
2022-10-15T03:10:48.116Z,14.64
2022-10-15T03:11:48.137Z,14.69
2022-10-15T03:12:48.089Z,14.64
2022-10-15T03:13:48.068Z,14.68
2022-10-15T03:14:48.055Z,14.64
2022-10-15T03:15:48.045Z,14.71
2022-10-15T03:16:48.046Z,14.56
2022-10-15T03:17:48.024Z,14.67
2022-10-15T03:18:48.011Z,14.67
2022-10-15T03:19:48.003Z,14.68
2022-10-15T03:20:47.988Z,14.74
2022-10-15T03:21:47.988Z,14.71
2022-10-15T03:22:47.968Z,14.69
2022-10-15T03:23:47.972Z,14.65
2022-10-15T03:24:47.946Z,14.61
2022-10-15T03:25:47.949Z,14.65
2022-10-15T03:26:47.953Z,14.64
2022-10-15T03:27:47.915Z,14.57
2022-10-15T03:28:47.935Z,14.67
2022-10-15T03:29:47.892Z,14.62
2022-10-15T03:30:47.879Z,14.64
2022-10-15T03:31:47.881Z,14.65
2022-10-15T03:32:48.219Z,14.61
2022-10-15T03:33:47.852Z,14.62
2022-10-15T03:34:47.838Z,14.61
2022-10-15T03:35:47.887Z,14.62
2022-10-15T03:36:47.844Z,14.68
2022-10-15T03:37:47.806Z,14.65
2022-10-15T03:38:47.795Z,14.64
2022-10-15T03:39:47.785Z,14.67
2022-10-15T03:40:47.777Z,14.67
2022-10-15T03:41:47.780Z,14.61
2022-10-15T03:42:47.767Z,14.71
2022-10-15T03:43:47.741Z,14.65
2022-10-15T03:44:47.729Z,14.68
2022-10-15T03:45:47.723Z,14.69
2022-10-15T03:46:47.722Z,14.71
2022-10-15T03:47:47.700Z,14.72
2022-10-15T03:48:47.684Z,14.65
2022-10-15T03:49:47.677Z,14.65
2022-10-15T03:50:47.665Z,14.65
2022-10-15T03:51:47.654Z,14.62
2022-10-15T03:52:47.653Z,14.75
2022-10-15T03:53:47.632Z,14.69
2022-10-15T03:54:47.619Z,14.65
2022-10-15T03:55:47.611Z,14.67
2022-10-15T03:56:47.600Z,14.62
2022-10-15T03:57:47.600Z,14.72
2022-10-15T03:58:47.593Z,14.62
2022-10-15T03:59:47.578Z,14.65
2022-10-15T04:00:47.576Z,14.65
2022-10-15T04:01:47.547Z,14.71
2022-10-15T04:02:47.547Z,14.68
2022-10-15T04:03:47.524Z,14.68
2022-10-15T04:04:47.512Z,14.65
2022-10-15T04:05:52.931Z,14.69
2022-10-15T04:06:48.492Z,14.65
2022-10-15T04:07:47.494Z,14.67
2022-10-15T04:08:47.511Z,14.69
2022-10-15T04:09:47.461Z,14.61
2022-10-15T04:10:47.447Z,14.65
2022-10-15T04:11:47.441Z,14.61
2022-10-15T04:12:47.438Z,14.62
2022-10-15T04:13:47.416Z,14.61
2022-10-15T04:14:47.424Z,14.64
2022-10-15T04:15:47.392Z,14.64
2022-10-15T04:16:47.381Z,14.62
2022-10-15T04:17:47.407Z,14.50
2022-10-15T04:18:47.366Z,14.52
2022-10-15T04:19:47.351Z,14.52
2022-10-15T04:20:47.338Z,14.50
2022-10-15T04:21:47.339Z,14.47
2022-10-15T04:22:47.315Z,14.46
2022-10-15T04:23:47.317Z,14.46
2022-10-15T04:24:47.296Z,14.42
2022-10-15T04:25:47.284Z,14.43
2022-10-15T04:26:47.286Z,14.44
2022-10-15T04:27:47.264Z,14.46
2022-10-15T04:28:47.301Z,14.47
2022-10-15T04:29:47.242Z,14.46
2022-10-15T04:30:47.258Z,14.46
2022-10-15T04:31:47.233Z,14.42
2022-10-15T04:32:47.213Z,14.39
2022-10-15T04:33:47.200Z,14.37
2022-10-15T04:34:47.188Z,14.44
2022-10-15T04:35:47.176Z,14.47
2022-10-15T04:36:47.175Z,14.47
2022-10-15T04:37:47.154Z,14.44
2022-10-15T04:38:47.141Z,14.46
2022-10-15T04:39:47.137Z,14.44
2022-10-15T04:40:47.120Z,14.43
2022-10-15T04:41:47.132Z,14.47
2022-10-15T04:42:47.101Z,14.43
2022-10-15T04:43:47.089Z,14.46
2022-10-15T04:44:47.077Z,14.47
2022-10-15T04:45:47.069Z,14.46
2022-10-15T04:46:47.081Z,14.46
2022-10-15T04:47:47.047Z,14.46
2022-10-15T04:48:47.032Z,14.43
2022-10-15T04:49:47.026Z,14.47
2022-10-15T04:50:47.013Z,14.49
2022-10-15T04:51:47.013Z,14.42
2022-10-15T04:52:46.991Z,14.38
2022-10-15T04:53:46.984Z,14.44
2022-10-15T04:54:46.975Z,14.47
2022-10-15T04:55:46.960Z,14.50
2022-10-15T04:56:46.959Z,14.52
2022-10-15T04:57:46.938Z,14.56
2022-10-15T04:58:46.926Z,14.52
2022-10-15T04:59:46.916Z,14.53
2022-10-15T05:00:46.903Z,14.47
2022-10-15T05:01:46.963Z,14.57
2022-10-15T05:02:46.925Z,14.54
2022-10-15T05:03:46.877Z,14.61
2022-10-15T05:04:46.859Z,14.52
2022-10-15T05:05:46.852Z,14.61
2022-10-15T05:06:46.855Z,14.61
2022-10-15T05:07:46.828Z,14.57
2022-10-15T05:08:46.815Z,14.61
2022-10-15T05:09:46.809Z,14.64
2022-10-15T05:10:46.796Z,14.67
2022-10-15T05:11:46.802Z,14.65
2022-10-15T05:12:48.512Z,14.61
2022-10-15T05:13:46.767Z,14.61
2022-10-15T05:14:46.751Z,14.60
2022-10-15T05:15:46.775Z,14.64
2022-10-15T05:16:46.742Z,14.64
2022-10-15T05:17:46.721Z,14.67
2022-10-15T05:18:46.726Z,14.62
2022-10-15T05:19:46.699Z,14.67
2022-10-15T05:20:46.688Z,14.64
2022-10-15T05:21:46.700Z,14.62
2022-10-15T05:22:46.666Z,14.54
2022-10-15T05:23:46.657Z,14.68
2022-10-15T05:24:46.646Z,14.72
2022-10-15T05:25:50.382Z,14.67
2022-10-15T05:26:47.689Z,14.61
2022-10-15T05:27:46.614Z,14.65
2022-10-15T05:28:46.687Z,14.67
2022-10-15T05:29:46.592Z,14.60
2022-10-15T05:30:46.580Z,14.65
2022-10-15T05:31:46.581Z,14.62
2022-10-15T05:32:46.565Z,14.69
2022-10-15T05:33:46.548Z,14.72
2022-10-15T05:34:46.553Z,14.65
2022-10-15T05:35:46.530Z,14.65
2022-10-15T05:36:46.525Z,14.75
2022-10-15T05:37:46.504Z,14.78
2022-10-15T05:38:46.515Z,14.74
2022-10-15T05:39:46.485Z,14.69
2022-10-15T05:40:46.472Z,14.74
2022-10-15T05:41:46.499Z,14.74
2022-10-15T05:42:46.493Z,14.72
2022-10-15T05:43:46.441Z,14.75
2022-10-15T05:44:46.428Z,14.74
2022-10-15T05:45:46.471Z,14.74
2022-10-15T05:46:46.411Z,14.74
2022-10-15T05:47:46.394Z,14.84
2022-10-15T05:48:46.386Z,14.78
2022-10-15T05:49:46.378Z,14.72
2022-10-15T05:50:46.395Z,14.78
2022-10-15T05:51:46.402Z,14.87
2022-10-15T05:52:46.343Z,14.80
2022-10-15T05:53:46.461Z,14.90
2022-10-15T05:54:46.320Z,14.78
2022-10-15T05:55:46.345Z,14.81
2022-10-15T05:56:46.300Z,14.84
2022-10-15T05:57:46.294Z,14.86
2022-10-15T05:58:46.278Z,14.83
2022-10-15T05:59:46.268Z,14.86
2022-10-15T06:00:46.292Z,14.91
2022-10-15T06:01:46.325Z,14.98
2022-10-15T06:02:46.454Z,14.91
2022-10-15T06:03:46.263Z,14.94
2022-10-15T06:04:46.227Z,14.93
2022-10-15T06:05:46.209Z,14.93
2022-10-15T06:06:46.207Z,14.95
2022-10-15T06:07:46.179Z,14.94
2022-10-15T06:08:46.170Z,14.94
2022-10-15T06:09:46.157Z,14.93
2022-10-15T06:10:46.161Z,14.94
2022-10-15T06:11:46.136Z,14.94
2022-10-15T06:12:46.126Z,14.94
2022-10-15T06:13:46.114Z,14.93
2022-10-15T06:14:46.109Z,14.94
2022-10-15T06:15:46.102Z,14.95
2022-10-15T06:16:46.082Z,14.93
2022-10-15T06:17:46.071Z,14.93
2022-10-15T06:18:46.067Z,15.03
2022-10-15T06:19:46.051Z,15.02
2022-10-15T06:20:46.055Z,14.98
2022-10-15T06:21:46.027Z,15.05
2022-10-15T06:22:46.039Z,14.98
2022-10-15T06:23:46.006Z,15.01
2022-10-15T06:24:46.025Z,15.11
2022-10-15T06:25:45.995Z,15.12
2022-10-15T06:26:45.976Z,15.11
2022-10-15T06:27:45.963Z,15.12
2022-10-15T06:28:46.051Z,15.09
2022-10-15T06:29:45.951Z,15.06
2022-10-15T06:30:45.933Z,15.20
2022-10-15T06:31:45.920Z,15.26
2022-10-15T06:32:45.916Z,15.33
2022-10-15T06:33:45.901Z,15.42
2022-10-15T06:34:45.903Z,15.43
2022-10-15T06:35:45.877Z,15.54
2022-10-15T06:36:45.869Z,15.56
2022-10-15T06:37:45.853Z,15.68
2022-10-15T06:38:45.905Z,15.92
2022-10-15T06:39:45.857Z,16.22
2022-10-15T06:40:45.833Z,16.62
2022-10-15T06:41:45.822Z,17.03
2022-10-15T06:42:45.804Z,17.26
2022-10-15T06:43:45.816Z,17.67
2022-10-15T06:44:45.794Z,17.99
2022-10-15T06:45:45.768Z,18.28
2022-10-15T06:46:45.759Z,18.31
2022-10-15T06:47:45.746Z,18.70
2022-10-15T06:48:45.740Z,18.95
2022-10-15T06:49:45.866Z,19.50
2022-10-15T06:50:45.715Z,19.76
2022-10-15T06:51:45.704Z,20.13
2022-10-15T06:52:45.776Z,20.38
2022-10-15T06:53:45.680Z,20.72
2022-10-15T06:54:45.715Z,20.91
2022-10-15T06:55:45.661Z,20.93
2022-10-15T06:56:45.685Z,20.87
2022-10-15T06:57:45.640Z,20.66
2022-10-15T06:58:45.638Z,20.43
2022-10-15T06:59:45.628Z,20.08
2022-10-15T07:00:45.606Z,19.79
2022-10-15T07:01:45.596Z,19.42
2022-10-15T07:02:45.587Z,19.17
2022-10-15T07:03:45.572Z,18.98
2022-10-15T07:04:45.578Z,18.73
2022-10-15T07:05:45.551Z,18.58
2022-10-15T07:06:45.545Z,18.52
2022-10-15T07:07:45.531Z,18.39
2022-10-15T07:08:45.521Z,18.28
2022-10-15T07:09:45.520Z,18.28
2022-10-15T07:10:45.517Z,18.19
2022-10-15T07:11:45.488Z,18.17
2022-10-15T07:12:45.482Z,17.97
2022-10-15T07:13:45.467Z,17.92
2022-10-15T07:14:45.471Z,17.78
2022-10-15T07:15:45.444Z,17.66
2022-10-15T07:16:45.435Z,17.53
2022-10-15T07:17:45.424Z,17.47
2022-10-15T07:18:45.447Z,17.35
2022-10-15T07:19:45.404Z,17.35
2022-10-15T07:20:45.413Z,17.26
2022-10-15T07:21:45.380Z,17.18
2022-10-15T07:22:45.374Z,17.08
2022-10-15T07:23:45.373Z,17.13
2022-10-15T07:24:45.356Z,17.06
2022-10-15T07:25:45.339Z,16.98
2022-10-15T07:26:45.344Z,17.17
2022-10-15T07:27:45.320Z,17.29
2022-10-15T07:28:45.359Z,17.40
2022-10-15T07:29:45.296Z,17.62
2022-10-15T07:30:45.289Z,17.85
2022-10-15T07:32:46.509Z,18.54
2022-10-15T07:33:45.261Z,18.94
2022-10-15T07:34:45.243Z,19.54
2022-10-15T07:35:45.232Z,20.09
2022-10-15T07:36:45.234Z,20.47
2022-10-15T07:37:45.214Z,20.95
2022-10-15T07:38:45.209Z,21.02
2022-10-15T07:39:45.206Z,20.95
2022-10-15T07:40:45.180Z,21.13
2022-10-15T07:41:45.166Z,21.57
2022-10-15T07:42:45.172Z,21.75
2022-10-15T07:43:45.199Z,21.69
2022-10-15T07:44:45.135Z,21.81
2022-10-15T07:45:45.124Z,21.91
2022-10-15T07:46:45.111Z,22.20
2022-10-15T07:47:45.100Z,22.37
2022-10-15T07:48:45.100Z,22.37
2022-10-15T07:49:45.081Z,22.37
2022-10-15T07:50:45.069Z,22.17
2022-10-15T07:51:45.059Z,21.90
2022-10-15T07:52:45.084Z,21.74
2022-10-15T07:53:45.053Z,21.74
2022-10-15T07:54:45.030Z,21.74
2022-10-15T07:55:45.074Z,22.04
2022-10-15T07:56:45.023Z,22.35
2022-10-15T07:57:45.011Z,22.38
2022-10-15T07:58:45.095Z,22.29
2022-10-15T07:59:44.995Z,22.16
2022-10-15T08:00:44.963Z,22.10
2022-10-15T08:01:47.099Z,21.98
2022-10-15T08:02:45.939Z,21.88
2022-10-15T08:03:44.941Z,21.67
2022-10-15T08:04:44.927Z,21.67
2022-10-15T08:05:44.908Z,21.81
2022-10-15T08:06:44.915Z,21.95
2022-10-15T08:07:44.885Z,22.17
2022-10-15T08:08:51.932Z,22.29
2022-10-15T08:10:44.855Z,22.71
2022-10-15T08:11:44.842Z,22.72
2022-10-15T08:12:44.835Z,22.74
2022-10-15T08:13:44.821Z,22.87
2022-10-15T08:14:44.838Z,22.99
2022-10-15T08:15:44.800Z,23.08
2022-10-15T08:16:44.793Z,22.97
2022-10-15T08:17:44.783Z,23.02
2022-10-15T08:18:44.881Z,22.97
2022-10-15T08:19:44.771Z,22.99
2022-10-15T08:20:44.749Z,23.07
2022-10-15T08:21:47.342Z,23.04
2022-10-15T08:22:44.729Z,23.05
2022-10-15T08:23:44.726Z,22.89
2022-10-15T08:24:44.708Z,22.90
2022-10-15T08:25:44.696Z,22.69
2022-10-15T08:26:44.685Z,22.72
2022-10-15T08:27:44.687Z,22.72
2022-10-15T08:28:44.724Z,22.69
2022-10-15T08:29:44.653Z,22.68
2022-10-15T08:30:44.663Z,22.82
2022-10-15T08:31:44.636Z,22.89
2022-10-15T08:32:44.625Z,22.84
2022-10-15T08:33:44.625Z,23.01
2022-10-15T08:34:44.605Z,22.97
2022-10-15T08:35:44.591Z,22.77
2022-10-15T08:36:44.582Z,22.72
2022-10-15T08:37:44.571Z,22.77
2022-10-15T08:38:44.574Z,22.71
2022-10-15T08:39:44.548Z,22.83
2022-10-15T08:40:44.548Z,22.96
2022-10-15T08:41:44.529Z,23.09
2022-10-15T08:42:44.522Z,22.96
2022-10-15T08:43:44.550Z,22.82
2022-10-15T08:44:44.499Z,22.69
2022-10-15T08:45:44.487Z,22.50
2022-10-15T08:46:44.520Z,22.38
2022-10-15T08:47:44.493Z,22.41
2022-10-15T08:48:44.471Z,22.53
2022-10-15T08:49:44.444Z,22.29
2022-10-15T08:50:44.434Z,22.25
2022-10-15T08:51:44.424Z,22.52
2022-10-15T08:52:44.415Z,22.75
2022-10-15T08:53:44.412Z,23.09
2022-10-15T08:54:44.393Z,23.17
2022-10-15T08:55:44.426Z,23.02
2022-10-15T08:56:44.375Z,22.89
2022-10-15T08:57:44.361Z,22.75
2022-10-15T08:58:44.360Z,22.46
2022-10-15T08:59:44.340Z,22.37
2022-10-15T09:00:44.332Z,21.92
2022-10-15T09:01:44.317Z,21.76
2022-10-15T09:02:44.370Z,21.63
2022-10-15T09:03:44.308Z,21.36
2022-10-15T09:04:44.288Z,21.14
2022-10-15T09:05:44.280Z,20.95
2022-10-15T09:06:44.266Z,20.81
2022-10-15T09:07:44.254Z,20.79
2022-10-15T09:08:44.278Z,20.83
2022-10-15T09:09:44.233Z,20.74
2022-10-15T09:10:44.224Z,20.59
2022-10-15T09:11:44.209Z,20.62
2022-10-15T09:12:44.203Z,20.61
2022-10-15T09:13:44.189Z,20.58
2022-10-15T09:14:44.192Z,20.49
2022-10-15T09:15:44.167Z,20.49
2022-10-15T09:16:44.156Z,20.43
2022-10-15T09:17:44.149Z,20.42
2022-10-15T09:18:44.153Z,20.39
2022-10-15T09:19:44.130Z,20.34
2022-10-15T09:20:44.110Z,20.27
2022-10-15T09:21:44.099Z,20.15
2022-10-15T09:22:44.135Z,20.08
2022-10-15T09:23:44.077Z,20.03
2022-10-15T09:24:44.076Z,19.97
2022-10-15T09:25:44.055Z,19.95
2022-10-15T09:26:44.046Z,20.02
2022-10-15T09:27:44.033Z,19.93
2022-10-15T09:28:44.090Z,20.05
2022-10-15T09:29:44.021Z,20.15
2022-10-15T09:30:44.003Z,20.33
2022-10-15T09:31:44.041Z,20.33
2022-10-15T09:32:43.982Z,20.46
2022-10-15T09:33:43.970Z,20.65
2022-10-15T09:34:43.988Z,20.79
2022-10-15T09:35:43.948Z,20.83
2022-10-15T09:36:43.952Z,20.96
2022-10-15T09:37:43.925Z,21.32
2022-10-15T09:38:43.917Z,21.53
2022-10-15T09:39:43.912Z,21.61
2022-10-15T09:40:43.893Z,21.60
2022-10-15T09:41:43.883Z,21.69
2022-10-15T09:42:43.871Z,21.64
2022-10-15T09:43:43.860Z,21.78
2022-10-15T09:44:43.869Z,21.94
2022-10-15T09:45:43.843Z,21.76
2022-10-15T09:46:43.829Z,21.82
2022-10-15T09:47:43.816Z,21.71
2022-10-15T09:48:43.808Z,21.66
2022-10-15T09:49:43.814Z,21.91
2022-10-15T09:50:43.802Z,22.29
2022-10-15T09:51:43.772Z,22.41
2022-10-15T09:52:43.770Z,22.13
2022-10-15T09:53:43.753Z,22.04
2022-10-15T09:54:43.749Z,22.09
2022-10-15T09:55:43.736Z,22.17
2022-10-15T09:56:43.720Z,22.09
2022-10-15T09:57:43.710Z,21.88
2022-10-15T09:58:43.707Z,21.50
2022-10-15T09:59:43.690Z,21.42
2022-10-15T10:00:43.686Z,21.44
2022-10-15T10:01:43.687Z,21.56
2022-10-15T10:02:43.708Z,21.45
2022-10-15T10:03:43.670Z,21.44
2022-10-15T10:04:43.633Z,21.32
2022-10-15T10:05:43.624Z,21.24
2022-10-15T10:06:43.628Z,21.11
2022-10-15T10:07:43.625Z,20.93
2022-10-15T10:08:43.617Z,20.96
2022-10-15T10:09:43.594Z,20.72
2022-10-15T10:10:46.066Z,20.61
2022-10-15T10:11:43.559Z,20.39
2022-10-15T10:12:43.546Z,20.39
2022-10-15T10:13:43.537Z,20.34
2022-10-15T10:14:43.535Z,20.38
2022-10-15T10:15:43.514Z,20.33
2022-10-15T10:16:43.513Z,20.25
2022-10-15T10:17:43.533Z,20.09
2022-10-15T10:18:43.496Z,20.08
2022-10-15T10:19:43.486Z,20.18
2022-10-15T10:20:43.459Z,20.21
2022-10-15T10:21:43.448Z,20.13
2022-10-15T10:22:46.512Z,20.13
2022-10-15T10:23:44.425Z,20.18
2022-10-15T10:24:43.450Z,20.08
2022-10-15T10:25:43.407Z,20.18
2022-10-15T10:26:43.391Z,20.27
2022-10-15T10:27:43.384Z,20.30
2022-10-15T10:28:44.327Z,20.33
2022-10-15T10:29:43.381Z,20.33
2022-10-15T10:30:43.368Z,20.38
2022-10-15T10:31:43.339Z,20.46
2022-10-15T10:32:43.328Z,20.42
2022-10-15T10:33:43.328Z,20.31
2022-10-15T10:34:43.307Z,20.34
2022-10-15T10:35:43.297Z,20.49
2022-10-15T10:36:44.196Z,20.38
2022-10-15T10:37:43.285Z,20.33
2022-10-15T10:38:43.344Z,20.30
2022-10-15T10:39:43.253Z,20.31
2022-10-15T10:40:43.244Z,20.38
2022-10-15T10:41:43.232Z,20.35
2022-10-15T10:42:43.242Z,20.35
2022-10-15T10:43:43.226Z,20.38
2022-10-15T10:44:43.198Z,20.46
2022-10-15T10:45:44.480Z,20.38
2022-10-15T10:46:43.174Z,20.43
2022-10-15T10:47:43.169Z,20.35
2022-10-15T10:48:43.215Z,20.25
2022-10-15T10:49:43.144Z,20.24
2022-10-15T10:50:43.134Z,20.46
2022-10-15T10:51:43.122Z,20.41
2022-10-15T10:52:43.121Z,20.46
2022-10-15T10:53:43.115Z,20.31
2022-10-15T10:54:43.116Z,20.28
2022-10-15T10:55:43.079Z,20.43
2022-10-15T10:56:43.069Z,20.42
2022-10-15T10:57:43.058Z,20.30
2022-10-15T10:58:43.050Z,20.35
2022-10-15T10:59:43.049Z,20.21
2022-10-15T11:00:43.097Z,20.13
2022-10-15T11:01:43.013Z,20.13
2022-10-15T11:02:43.003Z,20.20
2022-10-15T11:03:42.993Z,20.16
2022-10-15T11:04:43.012Z,20.09
2022-10-15T11:05:42.973Z,20.12
2022-10-15T11:06:42.961Z,20.15
2022-10-15T11:07:42.957Z,20.23
2022-10-15T11:08:42.950Z,20.16
2022-10-15T11:09:42.944Z,20.12
2022-10-15T11:10:42.938Z,20.25
2022-10-15T11:11:42.916Z,20.15
2022-10-15T11:12:42.907Z,20.20
2022-10-15T11:13:42.911Z,20.24
2022-10-15T11:14:42.876Z,20.27
2022-10-15T11:15:42.865Z,20.35
2022-10-15T11:16:42.884Z,20.33
2022-10-15T11:17:42.845Z,20.30
2022-10-15T11:18:42.840Z,20.33
2022-10-15T11:20:56.876Z,20.23
2022-10-15T11:21:43.798Z,20.13
2022-10-15T11:22:42.787Z,20.13
2022-10-15T11:23:42.792Z,20.15
2022-10-15T11:24:49.066Z,20.08
2022-10-15T11:25:43.756Z,20.10
2022-10-15T11:26:52.435Z,20.12
2022-10-15T11:27:43.735Z,20.08
2022-10-15T11:28:42.786Z,20.12
2022-10-15T11:29:42.715Z,20.10
2022-10-15T11:30:42.711Z,20.23
2022-10-15T11:31:55.099Z,20.18
2022-10-15T11:33:05.721Z,20.21
2022-10-15T11:33:43.683Z,20.10
2022-10-15T11:34:42.660Z,20.09
2022-10-15T11:35:54.215Z,20.15
2022-10-15T11:36:43.660Z,20.24
2022-10-15T11:37:42.650Z,20.35
2022-10-15T11:38:42.630Z,20.38
2022-10-15T11:39:42.609Z,20.25
2022-10-15T11:40:42.599Z,20.20
2022-10-15T11:41:42.589Z,20.23
2022-10-15T11:42:42.592Z,20.15
2022-10-15T11:43:42.582Z,20.10
2022-10-15T11:44:42.551Z,20.09
2022-10-15T11:45:42.543Z,20.12
2022-10-15T11:46:45.653Z,20.09
2022-10-15T11:47:42.556Z,20.23
2022-10-15T11:48:42.528Z,20.24
2022-10-15T11:49:42.525Z,20.23
2022-10-15T11:50:42.490Z,20.30
2022-10-15T11:51:42.480Z,20.20
2022-10-15T11:52:42.467Z,20.18
2022-10-15T11:53:42.470Z,20.15
2022-10-15T11:54:42.461Z,20.08
2022-10-15T11:55:42.436Z,19.97
2022-10-15T11:56:42.424Z,19.95
2022-10-15T11:57:42.416Z,20.00
2022-10-15T11:58:42.431Z,19.97
2022-10-15T11:59:42.394Z,19.97
2022-10-15T12:00:42.409Z,20.03
2022-10-15T12:01:42.373Z,19.98
2022-10-15T12:02:42.366Z,20.02
2022-10-15T12:03:42.361Z,20.12
2022-10-15T12:04:42.340Z,20.15
2022-10-15T12:05:42.332Z,20.16
2022-10-15T12:06:42.327Z,20.12
2022-10-15T12:07:42.310Z,20.08
2022-10-15T12:08:42.310Z,20.03
2022-10-15T12:09:42.291Z,19.95
2022-10-15T12:10:42.282Z,19.98
2022-10-15T12:11:42.270Z,19.90
2022-10-15T12:12:42.258Z,19.90
2022-10-15T12:13:42.262Z,20.00
2022-10-15T12:14:42.256Z,19.94
2022-10-15T12:15:42.229Z,20.00
2022-10-15T12:16:42.215Z,19.97
2022-10-15T12:17:42.238Z,19.91
2022-10-15T12:18:42.208Z,19.98
2022-10-15T12:19:42.187Z,19.91
2022-10-15T12:20:42.174Z,19.90
2022-10-15T12:21:42.165Z,19.94
2022-10-15T12:22:42.154Z,19.90
2022-10-15T12:23:42.166Z,19.83
2022-10-15T12:24:42.132Z,19.94
2022-10-15T12:25:42.135Z,19.90
2022-10-15T12:26:42.111Z,19.91
2022-10-15T12:27:42.104Z,19.75
2022-10-15T12:28:42.154Z,19.91
2022-10-15T12:29:42.087Z,19.90
2022-10-15T12:30:42.106Z,19.88
2022-10-15T12:31:42.065Z,19.75
2022-10-15T12:32:42.050Z,19.78
2022-10-15T12:33:42.050Z,19.75
2022-10-15T12:34:42.032Z,19.73
2022-10-15T12:35:42.019Z,19.83
2022-10-15T12:36:42.012Z,19.93
2022-10-15T12:37:41.997Z,19.79
2022-10-15T12:38:41.996Z,19.78
2022-10-15T12:39:57.482Z,19.75
2022-10-15T12:40:42.985Z,19.76
2022-10-15T12:41:41.959Z,19.69
2022-10-15T12:42:41.942Z,19.68
2022-10-15T12:43:41.946Z,19.73
2022-10-15T12:44:41.925Z,19.80
2022-10-15T12:45:41.911Z,19.80
2022-10-15T12:46:41.917Z,19.91
2022-10-15T12:47:41.891Z,19.84
2022-10-15T12:48:41.890Z,19.78
2022-10-15T12:49:41.871Z,19.68
2022-10-15T12:50:41.858Z,19.63
2022-10-15T12:51:41.860Z,19.73
2022-10-15T12:52:41.835Z,19.68
2022-10-15T12:53:41.879Z,19.76
2022-10-15T12:54:41.819Z,19.76
2022-10-15T12:55:41.809Z,19.75